• Join FlightAware (Why Join?)
  • Login
  • US Flag 
09:18AM EDT


 

Airport Tracker/Info


-or-


 

Live Flight TrackerFlight Track Log ✈ N779NC ✈ 05-Jul-2013 ✈ KORD - KDTW

Flight Track Log - Related Links

Times and Time Zones

All times are in EDT time to prevent confusion due to time zone crossing. See the N779NC flight status page for this flight to view local times or setup timezone preferences in your user account.

Time Position Orientation Groundspeed Altitude Reporting Facility
EDT Latitude Longitude Course Direction KTS MPH feet Rate Location/Type
05:49PM 41.9833 -87.8500 14° North 197 227 2,700  Level Chicago TRACON
05:50PM 41.9808 -87.7967 94° East 230 265 3,900 1,920 Climbing Chicago Center
05:51PM 42.0456 -87.8086 352° North 269 310 6,000 2,580 Climbing Chicago Center
05:52PM 42.3730 -87.7719 20° North  Level FlightAware Approximate
05:52PM 42.1172 -87.8356 344° North 296 341 9,300  Level Chicago Center
05:53PM 42.4743 -87.7385 North  Level FlightAware Approximate
05:53PM 42.1853 -87.7700 36° Northeast 302 348 12,200  Level Chicago Center
05:54PM 42.5771 -87.7133 14° North  Level FlightAware Approximate
05:54PM 42.2942 -87.7736 359° North 324 373 15,300  Level Chicago Center
05:55PM 42.6566 -87.6868 14° North  Level FlightAware Approximate
05:55PM 42.3836 -87.7789 358° North 332 382 17,700  Level Chicago Center
05:56PM 42.4808 -87.7456 14° North 355 409 19,900 1,440 Climbing Chicago Center
05:57PM 42.5822 -87.6939 21° North 385 443 20,700 720 Climbing Chicago Center
05:58PM 42.6683 -87.5817 44° Northeast 441 507 21,400 1,020 Climbing Chicago Center
05:59PM 42.7347 -87.3881 65° Northeast 480 552 22,900 720 Climbing Chicago Center
06:00PM 42.7886 -87.2450 63° Northeast 492 566 23,000  Climbing Chicago Center
06:01PM 42.8453 -87.0325 70° East 498 573 23,000  Level Chicago Center
06:03PM 42.8914 -86.8583 70° East 492 566 23,000  Level Chicago Center
06:04PM 42.9422 -86.6850 68° East 492 566 23,000  Level Chicago Center
06:05PM 42.9908 -86.5100 69° East 493 567 23,000  Level Chicago Center
06:06PM 43.0272 -86.3267 75° East 501 577 23,000  Level Chicago Center
06:07PM 43.0619 -86.1453 75° East 494 568 23,000  Level Chicago Center
06:08PM 43.1003 -85.9528 75° East 495 570 23,000  Level Chicago Center
06:09PM 43.1350 -85.7650 76° East 500 575 23,000  Level Chicago Center
06:10PM 43.1700 -85.5842 75° East 492 566 23,000  Level Chicago Center
06:11PM 43.2061 -85.4019 75° East 495 570 23,000  Level Chicago Center
06:12PM 43.2344 -85.1850 80° East 478 550 23,000  Level Chicago Center
06:13PM 43.2178 -85.0128 98° East 459 528 23,000  Level Chicago Center
06:14PM 43.1900 -84.8453 103° East 453 521 23,000  Level Chicago Center
06:15PM 43.1556 -84.6775 106° East 457 526 23,000 -540 Level Chicago Center
06:16PM 43.1242 -84.5111 104° East 453 521 22,000 -1,860 Descending Chicago Center
06:17PM 43.0889 -84.3539 107° East 436 502 19,300 -2,700 Descending Chicago Center
06:18PM 43.0517 -84.2064 109° East 411 473 16,500 -3,000 Descending Chicago Center
06:19PM 42.9956 -84.0606 118° Southeast 393 452 13,000 -2,160 Descending Cleveland Center
06:20PM 42.9406 -83.9469 123° Southeast 376 433 12,100 -540 Descending Cleveland Center
06:21PM 42.8969 -83.8708 128° Southeast 318 366 12,100  Level Cleveland Center
06:22PM 42.8353 -83.7658 129° Southeast 305 351 12,100 -720 Level Cleveland Center
06:23PM 42.7792 -83.6808 132° Southeast 300 345 10,600 -1,560 Descending Cleveland Center
06:24PM 42.6922 -83.6567 168° South 261 300 8,700 -1,380 Descending Cleveland Center
06:25PM 42.6564 -83.5900 126° Southeast 272 313 7,800 -1,380 Descending Cleveland Center
06:26PM 42.6272 -83.5067 115° Southeast 255 293 6,300 -900 Descending Cleveland Center
06:27PM 42.6025 -83.4211 111° Southeast 240 276 6,100 -180 Descending Cleveland Center
06:28PM 42.6089 -83.3225 85° East 243 280 6,000  Descending Cleveland Center
06:29PM 42.6131 -83.2353 86° East 238 274 6,100 -600 Climbing Cleveland Center
06:30PM 42.5856 -83.1636 118° Southeast 211 243 4,900 -1,020 Descending Cleveland Center
06:31PM 42.5272 -83.1583 176° South 200 230 4,100 -420 Descending Cleveland Center
06:32PM 42.4747 -83.1817 198° South 196 226 4,100  Level Cleveland Center
06:33PM 42.4278 -83.2189 210° Southwest 192 221 4,100  Level Cleveland Center
06:34PM 42.3833 -83.2536 210° Southwest 195 224 4,100  Level Cleveland Center